createdAt,value
2022-10-31T00:01:34.341Z,5.75
2022-10-31T00:04:05.046Z,5.35
2022-10-31T00:06:30.993Z,6.90
2022-10-31T00:08:59.318Z,5.72
2022-10-31T00:11:27.602Z,5.62
2022-10-31T00:13:55.906Z,6.08
2022-10-31T00:16:24.230Z,4.90
2022-10-31T00:18:52.525Z,5.25
2022-10-31T00:21:20.861Z,6.17
2022-10-31T00:23:49.257Z,5.37
2022-10-31T00:26:17.609Z,5.92
2022-10-31T00:28:45.920Z,5.47
2022-10-31T00:31:16.820Z,5.92
2022-10-31T00:33:42.707Z,5.92
2022-10-31T00:36:14.679Z,7.62
2022-10-31T00:38:40.531Z,7.10
2022-10-31T00:41:08.864Z,7.08
2022-10-31T00:43:37.191Z,7.60
2022-10-31T00:46:05.731Z,8.75
2022-10-31T00:48:34.039Z,7.10
2022-10-31T00:51:02.380Z,8.30
2022-10-31T00:56:08.647Z,9.95
2022-10-31T00:58:35.365Z,9.85
2022-10-31T01:01:03.775Z,9.23
2022-10-31T01:03:32.006Z,9.28
2022-10-31T01:06:00.860Z,9.45
2022-10-31T01:08:29.176Z,9.63
2022-10-31T01:11:01.545Z,11.03
2022-10-31T01:13:29.875Z,10.93
2022-10-31T01:15:58.146Z,10.60
2022-10-31T01:18:26.478Z,11.08
2022-10-31T01:21:01.358Z,11.20
2022-10-31T01:23:29.697Z,11.97
2022-10-31T01:26:16.313Z,11.85
2022-10-31T01:28:45.902Z,12.70
2022-10-31T01:31:14.200Z,13.62
2022-10-31T01:33:42.571Z,13.20
2022-10-31T01:36:15.112Z,13.45
2022-10-31T01:38:43.427Z,13.75
2022-10-31T01:41:12.212Z,14.33
2022-10-31T01:44:05.632Z,14.98
2022-10-31T01:46:34.432Z,14.03
2022-10-31T01:49:02.737Z,15.13
2022-10-31T01:51:31.120Z,15.00
2022-10-31T01:56:35.631Z,15.75
2022-10-31T01:59:03.942Z,16.32
2022-10-31T02:01:32.403Z,15.58
2022-10-31T02:04:00.693Z,16.90
2022-10-31T02:06:32.442Z,15.83
2022-10-31T02:11:34.543Z,15.95
2022-10-31T02:14:02.852Z,15.85
2022-10-31T02:16:31.228Z,17.77
2022-10-31T02:18:59.565Z,16.93
2022-10-31T02:21:28.149Z,17.57
2022-10-31T02:24:01.025Z,18.30
2022-10-31T02:26:39.648Z,16.80
2022-10-31T02:29:26.813Z,17.15
2022-10-31T02:31:55.186Z,17.57
2022-10-31T02:34:23.508Z,17.98
2022-10-31T02:36:52.519Z,18.70
2022-10-31T02:41:59.010Z,21.75
2022-10-31T02:44:27.751Z,19.17
2022-10-31T02:46:56.534Z,20.65
2022-10-31T02:49:25.212Z,18.32
2022-10-31T02:51:53.542Z,17.55
2022-10-31T02:56:57.576Z,21.83
2022-10-31T02:59:25.969Z,20.10
2022-10-31T03:02:03.641Z,20.17
2022-10-31T03:04:34.371Z,19.17
2022-10-31T03:07:03.185Z,19.75
2022-10-31T03:09:32.313Z,19.85
2022-10-31T03:12:00.648Z,20.52
2022-10-31T03:14:29.586Z,18.90
2022-10-31T03:16:57.911Z,17.67
2022-10-31T03:19:26.255Z,16.87
2022-10-31T03:21:54.663Z,17.80
2022-10-31T03:24:23.126Z,16.75
2022-10-31T03:26:51.879Z,16.25
2022-10-31T03:29:20.234Z,17.67
2022-10-31T03:31:48.683Z,19.57
2022-10-31T03:34:16.993Z,17.85
2022-10-31T03:36:45.355Z,20.52
2022-10-31T03:39:13.695Z,21.07
2022-10-31T03:41:42.765Z,19.85
2022-10-31T03:44:11.071Z,20.12
2022-10-31T03:46:39.393Z,19.17
2022-10-31T03:49:07.738Z,19.65
2022-10-31T03:51:36.344Z,20.15
2022-10-31T03:56:40.914Z,19.25
2022-10-31T03:59:09.700Z,21.20
2022-10-31T04:01:40.712Z,18.40
2022-10-31T04:04:06.353Z,17.80
2022-10-31T04:06:34.679Z,18.75
2022-10-31T04:09:03.081Z,17.65
2022-10-31T04:11:31.634Z,17.82
2022-10-31T04:13:59.957Z,19.62
2022-10-31T04:16:28.252Z,20.10
2022-10-31T04:18:56.680Z,19.87
2022-10-31T04:21:29.628Z,18.55
2022-10-31T04:23:59.736Z,17.62
2022-10-31T04:26:26.353Z,19.65
2022-10-31T04:28:54.674Z,18.87
2022-10-31T04:31:22.973Z,19.25
2022-10-31T04:33:51.313Z,20.00
2022-10-31T04:36:19.611Z,18.77
2022-10-31T04:38:47.971Z,19.37
2022-10-31T04:41:16.273Z,18.55
2022-10-31T04:43:44.564Z,16.52
2022-10-31T04:46:12.904Z,16.65
2022-10-31T04:48:41.207Z,16.62
2022-10-31T04:51:09.591Z,16.82
2022-10-31T04:53:37.876Z,16.42
2022-10-31T04:56:07.064Z,16.20
2022-10-31T04:58:35.454Z,15.65
2022-10-31T05:01:04.629Z,19.20
2022-10-31T05:03:32.898Z,18.32
2022-10-31T05:06:01.216Z,19.65
2022-10-31T05:08:29.579Z,17.05
2022-10-31T05:11:01.671Z,17.67
2022-10-31T05:13:26.305Z,18.02
2022-10-31T05:15:54.671Z,17.57
2022-10-31T05:18:23.004Z,17.65
2022-10-31T05:20:51.428Z,18.05
2022-10-31T05:23:19.758Z,19.15
2022-10-31T05:25:48.115Z,16.48
2022-10-31T05:30:52.012Z,19.95
2022-10-31T05:33:20.336Z,18.10
2022-10-31T05:35:48.761Z,19.02
2022-10-31T05:38:17.136Z,18.07
2022-10-31T05:40:45.469Z,17.75
2022-10-31T05:43:16.498Z,18.25
2022-10-31T05:45:42.126Z,17.07
2022-10-31T05:48:12.953Z,18.98
2022-10-31T05:50:38.883Z,16.95
2022-10-31T05:53:07.214Z,18.57
2022-10-31T05:58:11.135Z,21.60
2022-10-31T06:00:39.484Z,17.23
2022-10-31T06:05:36.085Z,16.82
2022-10-31T06:08:04.851Z,16.85
2022-10-31T06:10:32.851Z,17.50
2022-10-31T06:13:01.208Z,15.95
2022-10-31T06:15:29.542Z,17.07
2022-10-31T06:18:01.532Z,16.50
2022-10-31T06:20:29.576Z,17.70
2022-10-31T06:22:59.926Z,16.25
2022-10-31T06:25:28.735Z,17.52
2022-10-31T06:27:54.567Z,15.13
2022-10-31T06:30:24.574Z,16.95
2022-10-31T06:32:51.330Z,15.80
2022-10-31T06:35:19.637Z,15.38
2022-10-31T06:40:28.528Z,13.50
2022-10-31T06:42:59.945Z,15.08
2022-10-31T06:45:28.264Z,15.60
2022-10-31T06:48:16.098Z,15.00
2022-10-31T06:50:24.882Z,14.85
2022-10-31T06:52:55.954Z,13.98
2022-10-31T06:58:00.266Z,16.35
2022-10-31T07:00:25.688Z,14.00
2022-10-31T07:02:57.312Z,14.05
2022-10-31T07:05:25.598Z,14.45
2022-10-31T07:07:55.202Z,13.83
2022-10-31T07:10:23.537Z,15.25
2022-10-31T07:12:56.425Z,13.78
2022-10-31T07:15:24.707Z,14.28
2022-10-31T07:17:53.023Z,14.98
2022-10-31T07:20:21.343Z,15.23
2022-10-31T07:22:59.119Z,14.35
2022-10-31T07:25:18.035Z,13.53
2022-10-31T07:27:46.384Z,13.83
2022-10-31T07:30:14.677Z,14.98
2022-10-31T07:32:43.055Z,14.70
2022-10-31T07:35:11.377Z,13.53
2022-10-31T07:37:42.054Z,14.58
2022-10-31T07:40:09.132Z,14.53
2022-10-31T07:42:37.511Z,14.25
2022-10-31T07:45:06.843Z,14.15
2022-10-31T07:47:40.408Z,13.70
2022-10-31T07:50:09.278Z,16.02
2022-10-31T07:52:37.603Z,15.65
2022-10-31T07:57:42.096Z,14.38
2022-10-31T08:00:11.658Z,13.72
2022-10-31T08:02:42.352Z,14.65
2022-10-31T08:05:08.965Z,14.80
2022-10-31T08:07:40.740Z,16.20
2022-10-31T08:10:07.362Z,15.60
2022-10-31T08:12:35.640Z,14.80
2022-10-31T08:15:04.132Z,14.63
2022-10-31T08:17:32.455Z,14.45
2022-10-31T08:20:00.771Z,14.70
2022-10-31T08:22:29.108Z,15.38
2022-10-31T08:24:58.992Z,16.02
2022-10-31T08:27:25.707Z,14.58
2022-10-31T08:32:29.611Z,16.80
2022-10-31T08:34:57.908Z,15.38
2022-10-31T08:37:26.207Z,14.68
2022-10-31T08:39:54.521Z,14.47
2022-10-31T08:42:22.870Z,15.03
2022-10-31T08:44:51.204Z,13.53
2022-10-31T08:47:19.543Z,14.70
2022-10-31T08:49:47.839Z,15.13
2022-10-31T08:52:16.169Z,14.87
2022-10-31T08:57:20.126Z,17.95
2022-10-31T08:59:48.419Z,15.98
2022-10-31T09:02:16.796Z,15.53
2022-10-31T09:04:45.067Z,14.38
2022-10-31T09:07:21.460Z,14.53
2022-10-31T09:09:41.692Z,14.63
2022-10-31T09:12:12.319Z,12.73
2022-10-31T09:14:38.298Z,14.33
2022-10-31T09:17:06.618Z,14.20
2022-10-31T09:19:34.974Z,16.30
2022-10-31T09:22:03.285Z,15.28
2022-10-31T09:24:31.661Z,14.95
2022-10-31T09:27:00.709Z,14.87
2022-10-31T09:29:29.053Z,13.95
2022-10-31T09:34:34.110Z,13.48
2022-10-31T09:37:02.429Z,14.40
2022-10-31T09:39:30.735Z,14.30
2022-10-31T09:42:30.106Z,14.40
2022-10-31T09:44:59.349Z,14.00
2022-10-31T09:47:28.929Z,14.18
2022-10-31T09:50:02.075Z,14.40
2022-10-31T09:52:30.340Z,12.80
2022-10-31T09:57:36.152Z,13.60
2022-10-31T10:00:02.937Z,12.85
2022-10-31T10:02:31.753Z,12.65
2022-10-31T10:05:00.126Z,13.62
2022-10-31T10:07:30.464Z,13.15
2022-10-31T10:09:58.972Z,12.03
2022-10-31T10:12:28.551Z,12.18
2022-10-31T10:14:59.253Z,11.68
2022-10-31T10:17:29.409Z,18.45
2022-10-31T10:20:03.708Z,13.13
2022-10-31T10:22:33.162Z,11.63
2022-10-31T10:25:08.272Z,11.18
2022-10-31T10:27:37.260Z,11.20
2022-10-31T10:30:06.580Z,10.78
2022-10-31T10:32:35.415Z,10.95
2022-10-31T10:35:04.399Z,11.30
2022-10-31T10:37:32.849Z,10.93
2022-10-31T10:40:05.071Z,11.63
2022-10-31T10:42:48.898Z,10.98
2022-10-31T10:45:35.683Z,10.90
2022-10-31T10:48:06.589Z,15.15
2022-10-31T10:50:34.952Z,11.85
2022-10-31T10:53:03.445Z,10.50
2022-10-31T10:55:32.094Z,9.83
2022-10-31T11:00:38.523Z,11.38
2022-10-31T11:03:06.014Z,9.68
2022-10-31T11:05:35.820Z,11.33
2022-10-31T11:08:04.147Z,9.50
2022-10-31T11:10:34.927Z,9.05
2022-10-31T11:13:02.853Z,8.83
2022-10-31T11:15:30.600Z,9.10
2022-10-31T11:17:58.912Z,10.43
2022-10-31T11:20:30.861Z,8.05
2022-10-31T11:23:17.208Z,8.55
2022-10-31T11:25:52.729Z,8.38
2022-10-31T11:28:21.058Z,8.83
2022-10-31T11:30:49.619Z,8.65
2022-10-31T11:33:21.638Z,9.20
2022-10-31T11:35:52.200Z,9.10
2022-10-31T11:38:19.349Z,9.20
2022-10-31T11:40:54.541Z,8.65
2022-10-31T11:43:22.872Z,8.15
2022-10-31T11:45:51.232Z,9.05
2022-10-31T11:48:19.584Z,9.80
2022-10-31T11:50:49.900Z,9.15
2022-10-31T11:53:18.443Z,9.10
2022-10-31T11:58:22.655Z,8.60
2022-10-31T12:00:51.286Z,8.28
2022-10-31T12:03:23.010Z,8.30
2022-10-31T12:05:51.481Z,7.35
2022-10-31T12:08:19.805Z,7.35
2022-10-31T12:10:49.139Z,6.55
2022-10-31T12:13:20.060Z,7.10
2022-10-31T12:15:48.603Z,6.33
2022-10-31T12:18:28.006Z,13.48
2022-10-31T12:20:57.485Z,9.63
2022-10-31T12:23:26.074Z,7.42
2022-10-31T12:25:54.550Z,6.70
2022-10-31T12:28:46.307Z,7.33
2022-10-31T12:31:15.639Z,7.60
2022-10-31T12:36:23.684Z,8.55
2022-10-31T12:38:54.236Z,8.43
2022-10-31T12:41:24.284Z,8.20
2022-10-31T12:43:52.986Z,8.70
2022-10-31T12:46:23.131Z,13.03
2022-10-31T12:49:22.403Z,26.95
2022-10-31T12:51:52.066Z,10.45
2022-10-31T12:57:04.148Z,8.35
2022-10-31T12:59:30.356Z,8.28
2022-10-31T13:01:58.804Z,8.33
2022-10-31T13:07:03.440Z,8.30
2022-10-31T13:09:32.058Z,9.03
2022-10-31T13:12:00.619Z,9.50
2022-10-31T13:14:28.941Z,9.63
2022-10-31T13:16:57.481Z,8.30
2022-10-31T13:19:26.133Z,15.32
2022-10-31T13:21:56.390Z,10.88
2022-10-31T13:24:24.789Z,8.93
2022-10-31T13:26:53.361Z,8.75
2022-10-31T13:29:22.642Z,8.08
2022-10-31T13:31:50.457Z,8.40
2022-10-31T13:34:20.954Z,7.45
2022-10-31T13:36:50.303Z,7.65
2022-10-31T13:39:22.687Z,8.83
2022-10-31T13:41:49.236Z,10.10
2022-10-31T13:44:17.592Z,10.10
2022-10-31T13:46:46.021Z,11.00
2022-10-31T13:52:07.416Z,12.23
2022-10-31T13:57:16.193Z,11.45
2022-10-31T13:59:44.564Z,12.98
2022-10-31T14:02:15.523Z,12.58
2022-10-31T14:04:46.394Z,12.65
2022-10-31T14:07:14.693Z,13.43
2022-10-31T14:09:43.108Z,12.47
2022-10-31T14:12:11.476Z,12.55
2022-10-31T14:14:44.759Z,13.70
2022-10-31T14:17:20.085Z,12.37
2022-10-31T14:22:22.642Z,13.22
2022-10-31T14:24:51.002Z,13.75
2022-10-31T14:27:35.635Z,14.80
2022-10-31T14:32:31.396Z,13.32
2022-10-31T14:34:59.713Z,14.15
2022-10-31T14:37:39.967Z,13.00
2022-10-31T14:40:19.948Z,13.28
2022-10-31T14:42:51.829Z,14.58
2022-10-31T14:45:23.247Z,14.05
2022-10-31T14:47:54.234Z,12.53
2022-10-31T14:50:23.383Z,15.60
2022-10-31T14:52:52.175Z,19.48
2022-10-31T14:57:56.571Z,16.60
2022-10-31T15:00:25.442Z,14.50
2022-10-31T15:02:56.677Z,13.93
2022-10-31T15:05:27.679Z,14.47
2022-10-31T15:07:53.465Z,16.30
2022-10-31T15:10:22.151Z,12.82
2022-10-31T15:12:50.645Z,13.83
2022-10-31T15:15:19.973Z,13.58
2022-10-31T15:17:49.028Z,12.90
2022-10-31T15:20:19.252Z,13.65
2022-10-31T15:22:47.560Z,13.32
2022-10-31T15:25:17.633Z,16.90
2022-10-31T15:27:46.025Z,15.90
2022-10-31T15:30:21.405Z,14.13
2022-10-31T15:32:57.520Z,14.53
2022-10-31T15:35:22.472Z,14.58
2022-10-31T15:37:50.868Z,13.70
2022-10-31T15:40:20.043Z,14.07
2022-10-31T15:42:49.109Z,14.35
2022-10-31T15:45:21.188Z,14.80
2022-10-31T15:47:49.627Z,13.58
2022-10-31T15:50:20.899Z,14.63
2022-10-31T15:52:51.116Z,16.20
2022-10-31T15:57:54.834Z,14.38
2022-10-31T16:00:25.060Z,14.60
2022-10-31T16:03:03.554Z,16.67
2022-10-31T16:05:34.796Z,15.58
2022-10-31T16:08:03.097Z,15.43
2022-10-31T16:10:31.534Z,14.13
2022-10-31T16:13:00.282Z,14.45
2022-10-31T16:15:28.272Z,14.50
2022-10-31T16:18:01.370Z,14.28
2022-10-31T16:20:25.230Z,15.95
2022-10-31T16:22:53.584Z,14.20
2022-10-31T16:25:21.975Z,14.07
2022-10-31T16:27:54.023Z,15.15
2022-10-31T16:30:30.336Z,14.58
2022-10-31T16:32:59.764Z,14.33
2022-10-31T16:35:27.801Z,13.50
2022-10-31T16:37:56.193Z,14.13
2022-10-31T16:40:24.593Z,13.85
2022-10-31T16:42:53.023Z,14.55
2022-10-31T16:45:21.493Z,15.05
2022-10-31T16:47:49.833Z,14.25
2022-10-31T16:50:18.294Z,16.42
2022-10-31T16:53:01.050Z,15.00
2022-10-31T16:57:51.002Z,13.98
2022-10-31T17:00:19.749Z,15.65
2022-10-31T17:02:48.081Z,16.90
2022-10-31T17:05:16.643Z,15.05
2022-10-31T17:07:44.985Z,14.18
2022-10-31T17:10:13.340Z,14.35
2022-10-31T17:12:41.682Z,15.25
2022-10-31T17:15:12.286Z,13.70
2022-10-31T17:17:40.712Z,14.18
2022-10-31T17:20:13.697Z,13.15
2022-10-31T17:22:42.066Z,15.23
2022-10-31T17:25:10.954Z,15.72
2022-10-31T17:27:42.196Z,14.98
2022-10-31T17:30:08.557Z,16.02
2022-10-31T17:32:36.945Z,15.75
2022-10-31T17:35:05.510Z,14.98
2022-10-31T17:37:33.892Z,13.53
2022-10-31T17:40:02.334Z,14.50
2022-10-31T17:42:30.714Z,13.58
2022-10-31T17:44:59.118Z,13.58
2022-10-31T17:47:27.496Z,14.33
2022-10-31T17:49:55.856Z,14.47
2022-10-31T17:52:25.931Z,14.70
2022-10-31T17:57:28.160Z,17.23
2022-10-31T17:59:56.627Z,15.05
2022-10-31T18:02:26.772Z,13.90
2022-10-31T18:04:53.397Z,15.40
2022-10-31T18:07:21.833Z,14.73
2022-10-31T18:09:52.512Z,16.97
2022-10-31T18:12:18.562Z,15.63
2022-10-31T18:14:48.575Z,17.30
2022-10-31T18:17:15.328Z,17.02
2022-10-31T18:22:19.766Z,18.55
2022-10-31T18:24:48.118Z,17.82
2022-10-31T18:27:16.625Z,16.57
2022-10-31T18:29:45.017Z,16.82
2022-10-31T18:32:15.372Z,15.85
2022-10-31T18:34:42.143Z,19.90
2022-10-31T18:37:13.602Z,18.07
2022-10-31T18:39:41.983Z,20.85
2022-10-31T18:42:10.453Z,24.67
2022-10-31T18:44:38.834Z,26.77
2022-10-31T18:47:07.150Z,25.65
2022-10-31T18:49:35.490Z,28.65
2022-10-31T18:52:03.848Z,30.60
2022-10-31T18:57:07.764Z,39.90
2022-10-31T19:02:13.931Z,37.20
2022-10-31T19:07:16.106Z,36.88
2022-10-31T19:09:44.432Z,34.65
2022-10-31T19:12:12.756Z,33.18
2022-10-31T19:14:41.086Z,31.15
2022-10-31T19:17:09.445Z,35.52
2022-10-31T19:19:38.063Z,35.03
2022-10-31T19:22:06.395Z,30.68
2022-10-31T19:24:34.784Z,32.93
2022-10-31T19:27:03.138Z,35.03
2022-10-31T19:29:33.818Z,31.27
2022-10-31T19:31:59.846Z,31.65
2022-10-31T19:34:28.180Z,32.80
2022-10-31T19:36:56.489Z,32.85
2022-10-31T19:39:26.709Z,34.33
2022-10-31T19:41:53.355Z,34.35
2022-10-31T19:44:24.445Z,33.42
2022-10-31T19:46:54.127Z,32.60
2022-10-31T19:49:18.663Z,35.20
2022-10-31T19:51:46.994Z,35.00
2022-10-31T19:56:50.968Z,40.98
2022-10-31T19:59:21.158Z,37.60
2022-10-31T20:01:47.751Z,35.90
2022-10-31T20:04:16.034Z,36.08
2022-10-31T20:06:44.362Z,35.25
2022-10-31T20:09:13.307Z,35.48
2022-10-31T20:11:41.671Z,33.50
2022-10-31T20:14:10.508Z,32.10
2022-10-31T20:16:38.877Z,35.52
2022-10-31T20:19:08.914Z,35.08
2022-10-31T20:21:36.626Z,35.70
2022-10-31T20:24:05.178Z,33.95
2022-10-31T20:26:35.881Z,35.95
2022-10-31T20:29:01.901Z,35.75
2022-10-31T20:31:30.273Z,35.20
2022-10-31T20:33:58.674Z,36.13
2022-10-31T20:36:27.037Z,36.38
2022-10-31T20:38:55.376Z,37.33
2022-10-31T20:41:23.704Z,35.40
2022-10-31T20:43:52.064Z,34.25
2022-10-31T20:46:20.389Z,37.03
2022-10-31T20:48:49.023Z,37.88
2022-10-31T20:51:17.377Z,33.78
2022-10-31T20:56:21.252Z,39.25
2022-10-31T20:58:51.289Z,35.68
2022-10-31T21:01:18.033Z,34.45
2022-10-31T21:03:46.230Z,36.80
2022-10-31T21:06:14.558Z,36.42
2022-10-31T21:08:43.129Z,32.35
2022-10-31T21:11:11.624Z,36.60
2022-10-31T21:13:40.861Z,33.98
2022-10-31T21:16:08.634Z,36.30
2022-10-31T21:18:37.021Z,35.33
2022-10-31T21:21:08.456Z,31.60
2022-10-31T21:23:39.113Z,38.00
2022-10-31T21:26:08.487Z,36.85
2022-10-31T21:28:36.871Z,31.60
2022-10-31T21:31:06.902Z,35.43
2022-10-31T21:33:35.348Z,36.88
2022-10-31T21:36:03.737Z,35.20
2022-10-31T21:38:32.066Z,34.33
2022-10-31T21:41:01.410Z,36.70
2022-10-31T21:43:29.792Z,34.98
2022-10-31T21:46:05.390Z,34.05
2022-10-31T21:48:31.566Z,31.97
2022-10-31T21:51:03.589Z,33.60
2022-10-31T21:56:08.691Z,39.40
2022-10-31T21:58:38.631Z,36.45
2022-10-31T22:01:07.126Z,34.03
2022-10-31T22:03:36.162Z,32.80
2022-10-31T22:06:06.333Z,33.40
2022-10-31T22:08:33.025Z,33.10
2022-10-31T22:11:03.010Z,34.80
2022-10-31T22:13:31.844Z,32.60
2022-10-31T22:16:01.929Z,32.78
2022-10-31T22:18:32.609Z,32.85
2022-10-31T22:21:02.366Z,31.82
2022-10-31T22:23:30.692Z,33.35
2022-10-31T22:26:00.807Z,33.80
2022-10-31T22:28:30.193Z,31.73
2022-10-31T22:31:00.170Z,32.70
2022-10-31T22:33:28.660Z,34.55
2022-10-31T22:35:55.241Z,31.35
2022-10-31T22:38:23.566Z,31.85
2022-10-31T22:40:51.881Z,31.77
2022-10-31T22:43:20.254Z,30.05
2022-10-31T22:45:54.909Z,27.05
2022-10-31T22:50:53.235Z,28.25
2022-10-31T22:53:21.584Z,28.12
2022-10-31T22:58:26.375Z,26.57
2022-10-31T23:00:54.835Z,27.90
2022-10-31T23:03:23.374Z,28.42
2022-10-31T23:06:00.356Z,27.73
2022-10-31T23:10:55.903Z,23.27
2022-10-31T23:13:39.822Z,27.50
2022-10-31T23:16:08.833Z,24.80
2022-10-31T23:18:49.550Z,27.20
2022-10-31T23:21:05.655Z,26.10
2022-10-31T23:23:34.593Z,26.90
2022-10-31T23:26:21.251Z,29.95
2022-10-31T23:28:49.602Z,26.20
2022-10-31T23:31:17.939Z,29.65
2022-10-31T23:33:46.227Z,29.65
2022-10-31T23:38:53.164Z,33.30
2022-10-31T23:41:21.599Z,29.85
2022-10-31T23:43:49.977Z,27.32
2022-10-31T23:46:18.393Z,26.62
2022-10-31T23:48:47.045Z,27.48
2022-10-31T23:51:15.408Z,27.20
2022-10-31T23:56:20.585Z,25.17
2022-10-31T23:58:48.929Z,28.07
